PWSweather.com
Personal Weather Stations
Station Observations
KCTHAMDEN
Dunbar Hill, Hamden, CT 06514

Dunbar HillHamden, CT 06514

Lat: 41.365437, Lon: -72.956532

Elevation: 200

Station Type: Davis Vantage Pro2+

www.hamdenweather.com

High Low Average
Temperature 73.4°F23.0°C 69.1°F20.6°C 71.4°F21.9°C
Dew Point 72.2°F22.3°C 67.9°F19.9°C 70.2°F21.2°C
Winds 1.9 mph 3.1 kmh Calm Calm Calm ESECalm ESE
Wind Gusts 3.0 mph4.8 kmh -- --
Humidity 98% 93% 96%
Pressure 30.00 in1015.9 mb 29.90 in1012.5 mb -
Precipitation 0.66 in16.8 mm - -
Hour Temp Dew Point Humidity Winds Wind Gusts Pressure Precip Precip Rate Daily Precip Total
12:00 AM 72.9°F22.7°C 70.8°F21.6°C 93% 0.1 mph S0.2 kmh S 3.0 mph4.8 kmh 29.92 in1013.2 mb - 0.03 in0.8 mm 0.03 in0.8 mm
12:15 AM 72.8°F22.7°C 71.0°F21.7°C 94% Calm Calm -- 29.92 in1013.2 mb - 0.04 in1.0 mm 0.07 in1.8 mm
12:30 AM 72.6°F22.6°C 70.8°F21.6°C 94% Calm Calm -- 29.92 in1013.2 mb - 0.03 in0.8 mm 0.10 in2.5 mm
12:45 AM 72.4°F22.4°C 70.6°F21.4°C 94% Calm Calm -- 29.92 in1013.2 mb - 0.00 in0.0 mm 0.10 in2.5 mm
01:00 AM 72.3°F22.4°C 70.8°F21.6°C 95% Calm Calm -- 29.92 in1013.2 mb - 0.00 in0.0 mm 0.10 in2.5 mm
01:15 AM 72.2°F22.3°C 70.7°F21.5°C 95% Calm Calm -- 29.92 in1013.2 mb - 0.00 in0.0 mm 0.10 in2.5 mm
01:30 AM 72.1°F22.3°C 70.6°F21.4°C 95% Calm Calm -- 29.92 in1013.2 mb - 0.00 in0.0 mm 0.10 in2.5 mm
01:45 AM 71.9°F22.2°C 70.4°F21.3°C 95% Calm Calm -- 29.91 in1012.9 mb - 0.00 in0.0 mm 0.10 in2.5 mm
02:00 AM 71.8°F22.1°C 70.3°F21.3°C 95% Calm Calm -- 29.92 in1013.2 mb - 0.00 in0.0 mm 0.10 in2.5 mm
02:15 AM 71.7°F22.1°C 70.5°F21.4°C 96% Calm Calm -- 29.92 in1013.2 mb - 0.00 in0.0 mm 0.10 in2.5 mm
02:30 AM 71.7°F22.1°C 70.5°F21.4°C 96% Calm Calm -- 29.92 in1013.2 mb - 0.00 in0.0 mm 0.10 in2.5 mm
02:45 AM 71.7°F22.1°C 70.5°F21.4°C 96% Calm Calm -- 29.92 in1013.2 mb - 0.00 in0.0 mm 0.10 in2.5 mm
03:00 AM 71.7°F22.1°C 70.5°F21.4°C 96% Calm Calm -- 29.91 in1012.9 mb - 0.00 in0.0 mm 0.10 in2.5 mm
03:15 AM 71.7°F22.1°C 70.5°F21.4°C 96% Calm Calm -- 29.91 in1012.9 mb - 0.00 in0.0 mm 0.10 in2.5 mm
03:30 AM 71.5°F21.9°C 70.3°F21.3°C 96% 0.1 mph SW0.2 kmh SW -- 29.91 in1012.9 mb - 0.00 in0.0 mm 0.10 in2.5 mm
03:45 AM 71.3°F21.8°C 70.1°F21.2°C 96% 0.5 mph WSW0.8 kmh WSW 3.0 mph4.8 kmh 29.90 in1012.5 mb - 0.00 in0.0 mm 0.10 in2.5 mm
04:00 AM 71.1°F21.7°C 69.9°F21.1°C 96% 0.8 mph NW1.3 kmh NW 3.0 mph4.8 kmh 29.90 in1012.5 mb - 0.00 in0.0 mm 0.10 in2.5 mm
04:15 AM 70.8°F21.6°C 69.6°F20.9°C 96% 1.9 mph NE3.1 kmh NE 1.0 mph1.6 kmh 29.90 in1012.5 mb - 0.00 in0.0 mm 0.10 in2.5 mm
04:30 AM 70.6°F21.4°C 69.4°F20.8°C 96% Calm Calm -- 29.91 in1012.9 mb - 0.00 in0.0 mm 0.10 in2.5 mm
04:45 AM 70.4°F21.3°C 69.2°F20.7°C 96% Calm Calm -- 29.93 in1013.5 mb - 0.00 in0.0 mm 0.10 in2.5 mm
05:00 AM 70.3°F21.3°C 69.1°F20.6°C 96% Calm Calm -- 29.93 in1013.5 mb - 0.00 in0.0 mm 0.10 in2.5 mm
05:15 AM 70.1°F21.2°C 68.9°F20.5°C 96% Calm Calm -- 29.93 in1013.5 mb - 0.00 in0.0 mm 0.10 in2.5 mm
05:30 AM 70.1°F21.2°C 68.9°F20.5°C 96% Calm Calm -- 29.93 in1013.5 mb - 0.00 in0.0 mm 0.10 in2.5 mm
05:45 AM 70.1°F21.2°C 68.9°F20.5°C 96% Calm Calm -- 29.93 in1013.5 mb - 0.00 in0.0 mm 0.10 in2.5 mm
06:00 AM 70.3°F21.3°C 69.4°F20.8°C 97% Calm Calm -- 29.94 in1013.9 mb - 0.00 in0.0 mm 0.10 in2.5 mm
06:15 AM 70.5°F21.4°C 69.6°F20.9°C 97% Calm Calm -- 29.94 in1013.9 mb - 0.00 in0.0 mm 0.10 in2.5 mm
06:30 AM 70.4°F21.3°C 69.2°F20.7°C 96% 0.4 mph E0.6 kmh E 2.0 mph3.2 kmh 29.95 in1014.2 mb - 0.00 in0.0 mm 0.10 in2.5 mm
06:45 AM 70.2°F21.2°C 69.0°F20.6°C 96% 0.5 mph WSW0.8 kmh WSW -- 29.95 in1014.2 mb - 0.00 in0.0 mm 0.10 in2.5 mm
07:00 AM 70.3°F21.3°C 69.5°F20.8°C 97% 0.1 mph W0.2 kmh W 1.0 mph1.6 kmh 29.95 in1014.2 mb - 0.00 in0.0 mm 0.10 in2.5 mm
07:15 AM 70.5°F21.4°C 69.3°F20.7°C 96% Calm Calm -- 29.96 in1014.6 mb - 0.00 in0.0 mm 0.10 in2.5 mm
07:30 AM 70.6°F21.4°C 69.4°F20.8°C 96% Calm Calm 1.0 mph1.6 kmh 29.96 in1014.6 mb - 0.00 in0.0 mm 0.10 in2.5 mm
07:45 AM 70.5°F21.4°C 69.3°F20.7°C 96% Calm Calm -- 29.96 in1014.6 mb - 0.00 in0.0 mm 0.10 in2.5 mm
08:00 AM 70.3°F21.3°C 69.1°F20.6°C 96% Calm Calm -- 29.96 in1014.6 mb - 0.01 in0.3 mm 0.11 in2.8 mm
08:15 AM 70.1°F21.2°C 68.9°F20.5°C 96% Calm Calm -- 29.96 in1014.6 mb - 0.01 in0.3 mm 0.12 in3.0 mm
08:30 AM 69.9°F21.1°C 68.7°F20.4°C 96% Calm Calm -- 29.96 in1014.6 mb - 0.02 in0.5 mm 0.13 in3.3 mm
08:45 AM 69.8°F21.0°C 68.6°F20.3°C 96% Calm Calm -- 29.97 in1014.9 mb - 0.02 in0.5 mm 0.15 in3.8 mm
09:00 AM 69.7°F20.9°C 68.5°F20.3°C 96% Calm Calm -- 29.98 in1015.2 mb - 0.02 in0.5 mm 0.17 in4.3 mm
09:15 AM 69.6°F20.9°C 68.4°F20.2°C 96% Calm Calm -- 29.98 in1015.2 mb - 0.02 in0.5 mm 0.19 in4.8 mm
09:30 AM 69.3°F20.7°C 68.1°F20.1°C 96% Calm Calm -- 29.98 in1015.2 mb - 0.03 in0.8 mm 0.22 in5.6 mm
09:45 AM 69.3°F20.7°C 68.1°F20.1°C 96% Calm Calm -- 29.98 in1015.2 mb - 0.02 in0.5 mm 0.24 in6.1 mm
10:00 AM 69.3°F20.7°C 68.1°F20.1°C 96% 0.5 mph ENE0.8 kmh ENE 2.0 mph3.2 kmh 29.98 in1015.2 mb - 0.02 in0.5 mm 0.26 in6.6 mm
10:15 AM 69.1°F20.6°C 67.9°F19.9°C 96% Calm Calm -- 29.99 in1015.6 mb - 0.02 in0.5 mm 0.28 in7.1 mm
10:30 AM 69.2°F20.7°C 68.0°F20.0°C 96% Calm Calm 1.0 mph1.6 kmh 29.99 in1015.6 mb - 0.02 in0.5 mm 0.30 in7.6 mm
10:45 AM 69.3°F20.7°C 68.1°F20.1°C 96% 0.1 mph NE0.2 kmh NE 1.0 mph1.6 kmh 29.98 in1015.2 mb - 0.01 in0.3 mm 0.31 in7.9 mm
11:00 AM 69.6°F20.9°C 68.7°F20.4°C 97% 0.2 mph NE0.3 kmh NE 2.0 mph3.2 kmh 29.97 in1014.9 mb - 0.02 in0.5 mm 0.33 in8.4 mm
11:15 AM 70.1°F21.2°C 69.2°F20.7°C 97% 0.3 mph N0.5 kmh N 2.0 mph3.2 kmh 29.98 in1015.2 mb - 0.01 in0.3 mm 0.34 in8.6 mm
11:30 AM 70.9°F21.6°C 70.0°F21.1°C 97% 0.1 mph NE0.2 kmh NE 1.0 mph1.6 kmh 29.97 in1014.9 mb - 0.01 in0.3 mm 0.35 in8.9 mm
11:45 AM 72.5°F22.5°C 71.9°F22.2°C 98% 0.3 mph NE0.5 kmh NE 2.0 mph3.2 kmh 29.97 in1014.9 mb - 0.02 in0.5 mm 0.37 in9.4 mm
12:00 PM 72.5°F22.5°C 71.6°F22.0°C 97% Calm Calm -- 29.98 in1015.2 mb - 0.01 in0.3 mm 0.38 in9.7 mm
12:15 PM 72.6°F22.6°C 71.4°F21.9°C 96% Calm Calm -- 29.98 in1015.2 mb - 0.01 in0.3 mm 0.39 in9.9 mm
12:30 PM 72.7°F22.6°C 71.5°F21.9°C 96% 0.2 mph ENE0.3 kmh ENE -- 29.98 in1015.2 mb - 0.01 in0.3 mm 0.40 in10.2 mm
12:45 PM 73.0°F22.8°C 71.8°F22.1°C 96% 0.7 mph NE1.1 kmh NE 2.0 mph3.2 kmh 29.98 in1015.2 mb - 0.01 in0.3 mm 0.41 in10.4 mm
01:00 PM 73.4°F23.0°C 72.2°F22.3°C 96% Calm Calm -- 29.97 in1014.9 mb - 0.01 in0.3 mm 0.42 in10.7 mm
01:15 PM 73.4°F23.0°C 72.2°F22.3°C 96% 0.1 mph E0.2 kmh E -- 29.98 in1015.2 mb - 0.01 in0.3 mm 0.43 in10.9 mm
01:30 PM 73.1°F22.8°C 71.6°F22.0°C 95% Calm Calm -- 29.97 in1014.9 mb - 0.01 in0.3 mm 0.44 in11.2 mm
01:45 PM 72.9°F22.7°C 71.4°F21.9°C 95% Calm Calm -- 29.97 in1014.9 mb - 0.01 in0.3 mm 0.45 in11.4 mm
02:00 PM 72.6°F22.6°C 71.1°F21.7°C 95% Calm Calm -- 29.96 in1014.6 mb - 0.01 in0.3 mm 0.46 in11.7 mm
02:15 PM 72.6°F22.6°C 71.1°F21.7°C 95% Calm Calm -- 29.97 in1014.9 mb - 0.01 in0.3 mm 0.47 in11.9 mm
02:30 PM 72.5°F22.5°C 71.0°F21.7°C 95% Calm Calm -- 29.96 in1014.6 mb - 0.01 in0.3 mm 0.48 in12.2 mm
02:45 PM 72.4°F22.4°C 70.9°F21.6°C 95% Calm Calm -- 29.96 in1014.6 mb - 0.00 in0.0 mm 0.48 in12.2 mm
03:00 PM 72.2°F22.3°C 70.7°F21.5°C 95% Calm Calm 1.0 mph1.6 kmh 29.97 in1014.9 mb - 0.01 in0.3 mm 0.49 in12.4 mm
03:15 PM 72.2°F22.3°C 70.7°F21.5°C 95% Calm Calm -- 29.97 in1014.9 mb - 0.01 in0.3 mm 0.50 in12.7 mm
03:30 PM 72.0°F22.2°C 70.5°F21.4°C 95% Calm Calm -- 29.97 in1014.9 mb - 0.00 in0.0 mm 0.50 in12.7 mm
03:45 PM 72.0°F22.2°C 70.5°F21.4°C 95% Calm Calm -- 29.97 in1014.9 mb - 0.01 in0.3 mm 0.51 in13.0 mm
04:00 PM 72.2°F22.3°C 71.0°F21.7°C 96% Calm Calm -- 29.97 in1014.9 mb - 0.01 in0.3 mm 0.52 in13.2 mm
04:15 PM 72.2°F22.3°C 71.0°F21.7°C 96% Calm Calm -- 29.97 in1014.9 mb - 0.01 in0.3 mm 0.53 in13.5 mm
04:30 PM 72.2°F22.3°C 71.0°F21.7°C 96% Calm Calm -- 29.96 in1014.6 mb - 0.01 in0.3 mm 0.53 in13.5 mm
04:45 PM 72.4°F22.4°C 71.2°F21.8°C 96% Calm Calm -- 29.96 in1014.6 mb - 0.01 in0.3 mm 0.54 in13.7 mm
05:00 PM 72.6°F22.6°C 71.4°F21.9°C 96% Calm Calm -- 29.96 in1014.6 mb - 0.01 in0.3 mm 0.55 in14.0 mm
05:15 PM 72.7°F22.6°C 71.5°F21.9°C 96% Calm Calm -- 29.96 in1014.6 mb - 0.00 in0.0 mm 0.55 in14.0 mm
05:30 PM 72.7°F22.6°C 71.5°F21.9°C 96% Calm Calm -- 29.96 in1014.6 mb - 0.01 in0.3 mm 0.56 in14.2 mm
05:45 PM 72.7°F22.6°C 71.5°F21.9°C 96% Calm Calm -- 29.96 in1014.6 mb - 0.00 in0.0 mm 0.56 in14.2 mm
06:00 PM 72.6°F22.6°C 71.4°F21.9°C 96% Calm Calm -- 29.96 in1014.6 mb - 0.01 in0.3 mm 0.57 in14.5 mm
06:15 PM 72.5°F22.5°C 71.3°F21.8°C 96% Calm Calm -- 29.96 in1014.6 mb - 0.01 in0.3 mm 0.58 in14.7 mm
06:30 PM 72.5°F22.5°C 71.3°F21.8°C 96% Calm Calm -- 29.96 in1014.6 mb - 0.00 in0.0 mm 0.58 in14.7 mm
06:45 PM 72.5°F22.5°C 71.3°F21.8°C 96% Calm Calm -- 29.96 in1014.6 mb - 0.00 in0.0 mm 0.58 in14.7 mm
07:00 PM 72.4°F22.4°C 71.2°F21.8°C 96% Calm Calm -- 29.96 in1014.6 mb - 0.01 in0.3 mm 0.59 in15.0 mm
07:15 PM 72.4°F22.4°C 71.2°F21.8°C 96% Calm Calm -- 29.96 in1014.6 mb - 0.01 in0.3 mm 0.60 in15.2 mm
07:30 PM 72.4°F22.4°C 71.5°F21.9°C 97% Calm Calm -- 29.97 in1014.9 mb - 0.00 in0.0 mm 0.60 in15.2 mm
07:45 PM 72.4°F22.4°C 71.5°F21.9°C 97% Calm Calm -- 29.97 in1014.9 mb - 0.01 in0.3 mm 0.61 in15.5 mm
08:00 PM 72.3°F22.4°C 71.4°F21.9°C 97% Calm Calm -- 29.98 in1015.2 mb - 0.00 in0.0 mm 0.61 in15.5 mm
08:15 PM 72.1°F22.3°C 70.9°F21.6°C 96% Calm Calm -- 29.99 in1015.6 mb - 0.01 in0.3 mm 0.62 in15.7 mm
08:30 PM 72.0°F22.2°C 71.1°F21.7°C 97% Calm Calm -- 29.99 in1015.6 mb - 0.00 in0.0 mm 0.62 in15.7 mm
08:45 PM 72.0°F22.2°C 71.1°F21.7°C 97% Calm Calm -- 29.99 in1015.6 mb - 0.01 in0.3 mm 0.63 in16.0 mm
09:00 PM 71.9°F22.2°C 71.0°F21.7°C 97% Calm Calm -- 29.99 in1015.6 mb - 0.00 in0.0 mm 0.63 in16.0 mm
09:15 PM 71.7°F22.1°C 70.8°F21.6°C 97% Calm Calm -- 29.99 in1015.6 mb - 0.00 in0.0 mm 0.63 in16.0 mm
09:30 PM 71.5°F21.9°C 70.6°F21.4°C 97% Calm Calm -- 29.99 in1015.6 mb - 0.01 in0.3 mm 0.64 in16.3 mm
09:45 PM 71.2°F21.8°C 70.3°F21.3°C 97% Calm Calm -- 29.99 in1015.6 mb - 0.00 in0.0 mm 0.64 in16.3 mm
10:00 PM 70.9°F21.6°C 70.0°F21.1°C 97% Calm Calm -- 29.98 in1015.2 mb - 0.00 in0.0 mm 0.64 in16.3 mm
10:15 PM 70.7°F21.5°C 69.8°F21.0°C 97% Calm Calm -- 29.98 in1015.2 mb - 0.01 in0.3 mm 0.65 in16.5 mm
10:30 PM 70.5°F21.4°C 69.6°F20.9°C 97% Calm Calm -- 29.99 in1015.6 mb - 0.00 in0.0 mm 0.65 in16.5 mm
10:45 PM 70.4°F21.3°C 69.5°F20.8°C 97% Calm Calm -- 29.98 in1015.2 mb - 0.01 in0.3 mm 0.66 in16.8 mm
11:00 PM 70.5°F21.4°C 69.6°F20.9°C 97% Calm Calm -- 29.99 in1015.6 mb - 0.00 in0.0 mm 0.68 in17.3 mm
11:15 PM 70.5°F21.4°C 69.6°F20.9°C 97% Calm Calm -- 30.00 in1015.9 mb - 0.00 in0.0 mm 0.68 in17.3 mm
11:30 PM 70.6°F21.4°C 69.7°F20.9°C 97% Calm Calm -- 30.00 in1015.9 mb - 0.01 in0.3 mm 0.01 in0.3 mm
11:45 PM 70.6°F21.4°C 69.7°F20.9°C 97% Calm Calm -- 30.00 in1015.9 mb - 0.00 in0.0 mm 0.01 in0.3 mm